Observations for EAST MIDLANDS, United Kingdom (EGNX)

EGNX 220520Z 12003KT 0550 R27/0700 FG OVC001 16/16 Q1020
EGNX 220450Z VRB03KT 0900 R27/P1500 FG OVC001 16/16 Q1020   
EGNX 220420Z 15004KT 120V210 1200 R27/P1500 BR OVC001 16/16 Q1020   
EGNX 220350Z 16005KT 140V200 1500 BR OVC002 16/16 Q1020 
EGNX 220320Z 15005KT 1600 BR OVC002 16/16 Q1020 
EGNX 220250Z 13004KT 080V190 1100 BR BKN002 BKN010 16/16 Q1020  
EGNX 220220Z 13004KT 090V160 3000 BR BKN005 BKN022 16/16 Q1020  
EGNX 220150Z VRB03KT 2600 BR BKN002 OVC020 16/16 Q1020  
EGNX 220120Z VRB03KT 0800 R27/P1500 FG BKN001 OVC019 16/16 Q1020
EGNX 220050Z 17004KT 0500 R27/P1500 FG OVC001 16/16 Q1020   
EGNX 220020Z 19005KT 0500 R27/P1500 FG OVC001 16/16 Q1020   
EGNX 212350Z 20005KT 3800 BR BKN001 16/16 Q1020 
EGNX 212320Z 21005KT CAVOK 16/16 Q1020  
EGNX 212250Z 18006KT CAVOK 17/16 Q1020  
EGNX 212220Z 17006KT 160V220 9999 BKN037 17/16 Q1020
EGNX 212150Z VRB05KT 9999 BKN037 17/16 Q1021
EGNX 212120Z 14005KT 090V210 9999 BKN034 17/16 Q1021
EGNX 212050Z 16006KT 120V200 9999 BKN038 17/16 Q1021
EGNX 212020Z 16005KT 120V210 9999 BKN037 18/16 Q1021
EGNX 211950Z 16005KT 9999 BKN016 BKN037 18/15 Q1021 
EGNX 211920Z 14004KT 9999 BKN020 18/16 Q1020
EGNX 211850Z 14004KT 090V180 9999 BKN017 18/15 Q1020
EGNX 211820Z 16005KT 130V200 9999 BKN015 18/15 Q1020
EGNX 211750Z 16003KT 9999 BKN023 18/15 Q1020
EGNX 211720Z 19004KT 130V240 9999 BKN014 18/15 Q1020
EGNX 211650Z 18007KT 160V220 9999 BKN017 18/15 Q1020
EGNX 211620Z 20006KT 9999 BKN017 18/15 Q1020
EGNX 211550Z 18006KT 160V230 9999 BKN020 18/15 Q1021
EGNX 211520Z 17007KT 050V220 9999 BKN020 18/14 Q1020
EGNX 211450Z 15007KT 9999 SCT015 BKN021 18/14 Q1021 
EGNX 211420Z 14008KT 9999 BKN015 17/14 Q1021
EGNX 211350Z 14007KT 9999 BKN016 17/14 Q1021
EGNX 211320Z 14006KT 9999 BKN014 17/14 Q1021
EGNX 211250Z 13007KT 9999 BKN014 17/14 Q1021
EGNX 211220Z 14006KT 9999 BKN012 17/14 Q1021
EGNX 211150Z 16007KT 9999 BKN011 16/14 Q1021
EGNX 211120Z 15008KT 9999 BKN011 OVC014 16/14 Q1022 
EGNX 211050Z 16008KT 9999 BKN011 OVC018 16/14 Q1022 
EGNX 211020Z 15007KT 9999 BKN009 16/14 Q1022
EGNX 210950Z 17007KT 9999 BKN007 16/14 Q1022
EGNX 210850Z 15007KT 9999 SCT005 BKN014 OVC022 15/14 Q1022  
EGNX 210820Z 14008KT 9999 SCT005 BKN016 15/14 Q1022 
EGNX 210750Z 14009KT 9000 BKN004 OVC016 14/13 Q1022 
EGNX 210720Z 13007KT 8000 BKN003 OVC017 14/14 Q1022 
EGNX 210650Z 13005KT 120V180 9999 BKN003 OVC020 14/13 Q1022 
EGNX 210620Z 12006KT 8000 BKN003 OVC020 13/13 Q1021 
EGNX 210550Z 08004KT 040V100 9000 SCT003 BKN024 13/13 Q1021 
EGNX 210520Z 11005KT 040V160 9000 BKN024 13/13 Q1021
EGNX 210450Z 16005KT 9000 FEW015 BKN021 13/13 Q1021